createdAt,value
2019-03-19T00:00:47.167Z,0.84
2019-03-19T00:01:47.153Z,0.91
2019-03-19T00:02:47.188Z,0.86
2019-03-19T00:03:47.226Z,0.78
2019-03-19T00:04:47.258Z,0.69
2019-03-19T00:05:47.293Z,0.79
2019-03-19T00:06:47.338Z,0.76
2019-03-19T00:07:47.365Z,0.87
2019-03-19T00:08:47.400Z,0.70
2019-03-19T00:09:47.436Z,0.86
2019-03-19T00:10:47.469Z,0.84
2019-03-19T00:11:47.507Z,0.88
2019-03-19T00:12:47.541Z,0.83
2019-03-19T00:13:47.574Z,0.96
2019-03-19T00:14:47.622Z,0.87
2019-03-19T00:15:47.654Z,0.91
2019-03-19T00:16:47.684Z,0.84
2019-03-19T00:17:47.717Z,0.90
2019-03-19T00:18:47.754Z,0.94
2019-03-19T00:19:47.793Z,0.83
2019-03-19T00:20:47.826Z,0.78
2019-03-19T00:21:47.858Z,0.70
2019-03-19T00:22:47.893Z,0.66
2019-03-19T00:23:47.930Z,0.62
2019-03-19T00:24:48.022Z,0.68
2019-03-19T00:25:47.997Z,0.55
2019-03-19T00:26:48.031Z,0.58
2019-03-19T00:27:48.069Z,0.66
2019-03-19T00:28:48.106Z,0.66
2019-03-19T00:29:48.139Z,0.73
2019-03-19T00:30:48.177Z,0.72
2019-03-19T00:31:48.210Z,0.73
2019-03-19T00:32:48.253Z,0.69
2019-03-19T00:33:48.277Z,0.55
2019-03-19T00:34:48.321Z,0.51
2019-03-19T00:35:48.350Z,0.72
2019-03-19T00:36:48.434Z,0.62
2019-03-19T00:37:48.422Z,0.58
2019-03-19T00:38:48.455Z,0.60
2019-03-19T00:39:48.487Z,0.53
2019-03-19T00:40:48.531Z,0.61
2019-03-19T00:41:48.560Z,0.57
2019-03-19T00:42:48.594Z,0.60
2019-03-19T00:43:48.629Z,0.55
2019-03-19T00:44:48.666Z,0.57
2019-03-19T00:45:48.698Z,0.68
2019-03-19T00:46:48.734Z,0.50
2019-03-19T00:47:48.769Z,0.58
2019-03-19T00:48:48.805Z,0.53
2019-03-19T00:49:48.839Z,0.62
2019-03-19T00:50:48.873Z,0.57
2019-03-19T00:51:48.909Z,0.57
2019-03-19T00:52:48.945Z,0.55
2019-03-19T00:53:48.980Z,0.57
2019-03-19T00:54:49.026Z,0.57
2019-03-19T00:55:49.050Z,0.55
2019-03-19T00:56:49.086Z,0.53
2019-03-19T00:57:49.221Z,0.53
2019-03-19T00:58:49.155Z,0.53
2019-03-19T00:59:49.214Z,0.49
2019-03-19T01:00:49.224Z,0.49
2019-03-19T01:01:49.267Z,0.55
2019-03-19T01:02:49.308Z,0.46
2019-03-19T01:03:49.329Z,0.36
2019-03-19T01:04:49.374Z,0.47
2019-03-19T01:05:49.397Z,0.46
2019-03-19T01:06:49.435Z,0.46
2019-03-19T01:07:49.469Z,0.44
2019-03-19T01:08:49.503Z,0.49
2019-03-19T01:09:49.538Z,0.47
2019-03-19T01:10:49.575Z,0.58
2019-03-19T01:11:49.616Z,0.58
2019-03-19T01:12:49.645Z,0.57
2019-03-19T01:13:49.729Z,0.53
2019-03-19T01:14:49.714Z,0.50
2019-03-19T01:15:49.751Z,0.47
2019-03-19T01:16:49.788Z,0.36
2019-03-19T01:17:49.823Z,0.47
2019-03-19T01:18:49.854Z,0.47
2019-03-19T01:19:49.890Z,0.42
2019-03-19T01:20:49.925Z,0.41
2019-03-19T01:21:49.957Z,0.36
2019-03-19T01:22:49.993Z,0.31
2019-03-19T01:23:50.030Z,0.33
2019-03-19T01:24:50.063Z,0.35
2019-03-19T01:25:55.600Z,0.29
2019-03-19T01:26:50.134Z,0.35
2019-03-19T01:27:50.170Z,0.33
2019-03-19T01:28:50.215Z,0.29
2019-03-19T01:29:50.239Z,0.32
2019-03-19T01:30:50.280Z,0.29
2019-03-19T01:31:50.317Z,0.31
2019-03-19T01:32:50.343Z,0.35
2019-03-19T01:33:50.378Z,0.44
2019-03-19T01:34:50.412Z,0.28
2019-03-19T01:35:50.450Z,0.32
2019-03-19T01:36:50.484Z,0.31
2019-03-19T01:37:50.518Z,0.33
2019-03-19T01:38:50.552Z,0.26
2019-03-19T01:39:50.594Z,0.31
2019-03-19T01:40:50.625Z,0.31
2019-03-19T01:41:50.657Z,0.31
2019-03-19T01:42:50.700Z,0.33
2019-03-19T01:43:50.726Z,0.31
2019-03-19T01:44:50.761Z,0.32
2019-03-19T01:45:50.797Z,0.31
2019-03-19T01:46:50.830Z,0.31
2019-03-19T01:47:50.875Z,0.36
2019-03-19T01:48:50.902Z,0.32
2019-03-19T01:49:50.937Z,0.35
2019-03-19T01:50:50.975Z,0.39
2019-03-19T01:51:51.013Z,0.41
2019-03-19T01:52:51.040Z,0.33
2019-03-19T01:53:51.081Z,0.39
2019-03-19T01:54:51.111Z,0.47
2019-03-19T01:55:51.149Z,0.31
2019-03-19T01:56:51.182Z,0.33
2019-03-19T01:57:51.215Z,0.31
2019-03-19T01:58:51.250Z,0.35
2019-03-19T01:59:51.292Z,0.31
2019-03-19T02:00:51.323Z,0.31
2019-03-19T02:01:51.361Z,0.33
2019-03-19T02:02:51.390Z,0.28
2019-03-19T02:03:51.426Z,0.32
2019-03-19T02:04:51.468Z,0.33
2019-03-19T02:05:51.496Z,0.35
2019-03-19T02:06:51.537Z,0.33
2019-03-19T02:07:51.565Z,0.29
2019-03-19T02:08:51.600Z,0.29
2019-03-19T02:09:51.635Z,0.18
2019-03-19T02:10:51.670Z,0.28
2019-03-19T02:11:51.706Z,0.26
2019-03-19T02:12:51.741Z,0.15
2019-03-19T02:13:51.776Z,0.20
2019-03-19T02:14:51.807Z,0.11
2019-03-19T02:15:51.857Z,0.24
2019-03-19T02:16:51.878Z,0.20
2019-03-19T02:17:51.913Z,0.21
2019-03-19T02:18:51.948Z,0.23
2019-03-19T02:19:51.991Z,0.18
2019-03-19T02:20:52.020Z,0.18
2019-03-19T02:21:52.060Z,0.15
2019-03-19T02:22:52.087Z,0.15
2019-03-19T02:23:52.123Z,0.15
2019-03-19T02:24:52.157Z,0.14
2019-03-19T02:25:52.191Z,0.11
2019-03-19T02:26:52.228Z,0.13
2019-03-19T02:27:52.270Z,0.14
2019-03-19T02:28:52.298Z,0.08
2019-03-19T02:29:52.330Z,0.04
2019-03-19T02:30:52.369Z,0.02
2019-03-19T02:31:52.404Z,0.02
2019-03-19T02:32:52.439Z,0.07
2019-03-19T02:33:52.474Z,0.04
2019-03-19T02:34:52.505Z,0.02
2019-03-19T02:35:52.548Z,-0.01
2019-03-19T02:36:52.576Z,-0.15
2019-03-19T02:37:52.611Z,-0.18
2019-03-19T02:38:52.647Z,-0.05
2019-03-19T02:39:52.683Z,-0.10
2019-03-19T02:40:52.715Z,-0.07
2019-03-19T02:41:52.750Z,-0.14
2019-03-19T02:42:52.802Z,-0.05
2019-03-19T02:43:52.832Z,-0.16
2019-03-19T02:44:52.866Z,-0.22
2019-03-19T02:45:52.892Z,-0.19
2019-03-19T02:46:52.926Z,-0.15
2019-03-19T02:47:52.958Z,-0.14
2019-03-19T02:48:52.995Z,-0.14
2019-03-19T02:49:53.038Z,-0.15
2019-03-19T02:50:53.063Z,-0.11
2019-03-19T02:51:53.096Z,-0.07
2019-03-19T02:52:53.142Z,-0.08
2019-03-19T02:53:53.166Z,-0.05
2019-03-19T02:54:53.202Z,-0.15
2019-03-19T02:55:53.237Z,-0.10
2019-03-19T02:56:53.272Z,-0.08
2019-03-19T02:57:53.307Z,-0.16
2019-03-19T02:58:53.343Z,-0.15
2019-03-19T02:59:53.376Z,-0.10
2019-03-19T03:00:53.412Z,-0.14
2019-03-19T03:01:53.447Z,-0.08
2019-03-19T03:02:53.489Z,-0.05
2019-03-19T03:03:53.513Z,-0.14
2019-03-19T03:04:53.551Z,-0.16
2019-03-19T03:05:53.598Z,-0.21
2019-03-19T03:06:53.620Z,-0.21
2019-03-19T03:07:53.660Z,-0.22
2019-03-19T03:08:53.690Z,-0.26
2019-03-19T03:09:53.722Z,-0.23
2019-03-19T03:10:53.813Z,-0.22
2019-03-19T03:11:53.792Z,-0.19
2019-03-19T03:12:53.828Z,-0.15
2019-03-19T03:13:53.876Z,-0.26
2019-03-19T03:14:53.895Z,-0.19
2019-03-19T03:15:53.932Z,-0.28
2019-03-19T03:16:53.971Z,-0.31
2019-03-19T03:17:53.999Z,-0.18
2019-03-19T03:18:54.033Z,-0.33
2019-03-19T03:19:54.070Z,-0.23
2019-03-19T03:20:54.110Z,-0.33
2019-03-19T03:21:54.140Z,-0.23
2019-03-19T03:22:54.182Z,-0.36
2019-03-19T03:23:54.215Z,-0.26
2019-03-19T03:24:54.245Z,-0.21
2019-03-19T03:25:54.277Z,-0.19
2019-03-19T03:26:54.314Z,-0.18
2019-03-19T03:27:54.398Z,-0.23
2019-03-19T03:28:54.384Z,-0.23
2019-03-19T03:29:54.423Z,-0.16
2019-03-19T03:30:54.472Z,0.03
2019-03-19T03:31:54.484Z,0.03
2019-03-19T03:32:54.521Z,0.02
2019-03-19T03:33:54.564Z,0.17
2019-03-19T03:34:54.601Z,0.14
2019-03-19T03:35:54.637Z,0.32
2019-03-19T03:36:54.658Z,0.32
2019-03-19T03:37:54.694Z,0.31
2019-03-19T03:38:54.735Z,0.41
2019-03-19T03:39:54.818Z,0.39
2019-03-19T03:40:54.800Z,0.50
2019-03-19T03:41:54.834Z,0.51
2019-03-19T03:42:54.871Z,0.50
2019-03-19T03:43:54.904Z,0.57
2019-03-19T03:44:54.935Z,0.60
2019-03-19T03:45:54.971Z,0.66
2019-03-19T03:46:55.006Z,0.65
2019-03-19T03:47:55.045Z,0.58
2019-03-19T03:48:55.080Z,0.68
2019-03-19T03:49:55.111Z,0.73
2019-03-19T03:50:55.150Z,0.72
2019-03-19T03:51:55.197Z,0.58
2019-03-19T03:52:55.214Z,0.53
2019-03-19T03:53:55.249Z,0.58
2019-03-19T03:54:55.284Z,0.58
2019-03-19T03:55:55.323Z,0.55
2019-03-19T03:57:01.749Z,0.58
2019-03-19T03:57:55.389Z,0.62
2019-03-19T03:59:00.916Z,0.72
2019-03-19T03:59:55.468Z,0.78
2019-03-19T04:00:55.496Z,0.70
2019-03-19T04:01:55.527Z,0.72
2019-03-19T04:02:55.563Z,0.73
2019-03-19T04:03:55.597Z,0.70
2019-03-19T04:04:55.632Z,0.72
2019-03-19T04:05:55.669Z,0.70
2019-03-19T04:06:55.712Z,0.72
2019-03-19T04:07:55.741Z,0.65
2019-03-19T04:08:55.776Z,0.57
2019-03-19T04:09:55.810Z,0.53
2019-03-19T04:10:55.847Z,0.39
2019-03-19T04:11:55.878Z,0.42
2019-03-19T04:12:55.916Z,0.49
2019-03-19T04:13:55.949Z,0.33
2019-03-19T04:14:55.985Z,0.39
2019-03-19T04:15:56.022Z,0.32
2019-03-19T04:16:56.054Z,0.29
2019-03-19T04:17:56.087Z,0.28
2019-03-19T04:18:56.132Z,0.24
2019-03-19T04:19:56.373Z,0.23
2019-03-19T04:20:56.199Z,0.17
2019-03-19T04:21:56.228Z,0.13
2019-03-19T04:22:56.266Z,0.17
2019-03-19T04:23:56.318Z,0.20
2019-03-19T04:24:56.333Z,0.13
2019-03-19T04:25:56.366Z,0.00
2019-03-19T04:26:56.401Z,0.00
2019-03-19T04:27:56.445Z,-0.01
2019-03-19T04:28:56.472Z,-0.11
2019-03-19T04:29:56.504Z,-0.11
2019-03-19T04:30:56.542Z,-0.08
2019-03-19T04:31:56.573Z,0.00
2019-03-19T04:32:56.616Z,-0.03
2019-03-19T04:33:56.648Z,-0.10
2019-03-19T04:34:56.677Z,-0.14
2019-03-19T04:35:56.710Z,-0.11
2019-03-19T04:36:56.748Z,-0.11
2019-03-19T04:37:56.782Z,-0.21
2019-03-19T04:38:56.822Z,-0.23
2019-03-19T04:39:56.850Z,-0.18
2019-03-19T04:40:56.885Z,-0.18
2019-03-19T04:41:56.920Z,-0.16
2019-03-19T04:42:56.957Z,-0.22
2019-03-19T04:43:56.988Z,-0.21
2019-03-19T04:44:57.025Z,-0.33
2019-03-19T04:45:57.058Z,-0.23
2019-03-19T04:46:57.092Z,-0.21
2019-03-19T04:47:57.129Z,-0.14
2019-03-19T04:48:57.163Z,-0.16
2019-03-19T04:49:57.198Z,-0.19
2019-03-19T04:50:57.232Z,-0.22
2019-03-19T04:51:57.267Z,-0.14
2019-03-19T04:52:57.306Z,-0.14
2019-03-19T04:53:57.335Z,-0.18
2019-03-19T04:54:57.373Z,-0.11
2019-03-19T04:55:57.405Z,-0.21
2019-03-19T04:56:57.440Z,-0.23
2019-03-19T04:57:57.476Z,-0.26
2019-03-19T04:58:57.511Z,-0.19
2019-03-19T04:59:59.080Z,-0.22
2019-03-19T05:00:57.731Z,-0.23
2019-03-19T05:01:57.613Z,-0.22
2019-03-19T05:02:57.651Z,-0.26
2019-03-19T05:03:57.703Z,-0.22
2019-03-19T05:04:57.718Z,-0.29
2019-03-19T05:05:59.532Z,-0.34
2019-03-19T05:06:57.794Z,-0.33
2019-03-19T05:07:57.820Z,-0.22
2019-03-19T05:08:57.855Z,-0.36
2019-03-19T05:09:57.891Z,-0.19
2019-03-19T05:10:57.936Z,-0.36
2019-03-19T05:11:57.971Z,-0.26
2019-03-19T05:12:58.013Z,-0.22
2019-03-19T05:13:58.034Z,-0.23
2019-03-19T05:14:58.062Z,-0.25
2019-03-19T05:15:58.097Z,-0.19
2019-03-19T05:16:58.133Z,-0.29
2019-03-19T05:17:58.167Z,-0.28
2019-03-19T05:18:58.200Z,-0.22
2019-03-19T05:19:58.235Z,-0.26
2019-03-19T05:20:58.271Z,-0.43
2019-03-19T05:21:58.304Z,-0.31
2019-03-19T05:22:58.341Z,-0.47
2019-03-19T05:23:58.373Z,-0.44
2019-03-19T05:24:58.408Z,-0.42
2019-03-19T05:25:58.443Z,-0.49
2019-03-19T05:26:58.534Z,-0.52
2019-03-19T05:27:58.511Z,-0.55
2019-03-19T05:28:58.546Z,-0.47
2019-03-19T05:29:58.583Z,-0.54
2019-03-19T05:30:58.619Z,-0.55
2019-03-19T05:31:58.650Z,-0.51
2019-03-19T05:32:58.688Z,-0.49
2019-03-19T05:33:58.719Z,-0.54
2019-03-19T05:34:58.756Z,-0.54
2019-03-19T05:35:58.789Z,-0.49
2019-03-19T05:36:58.826Z,-0.40
2019-03-19T05:37:58.858Z,-0.51
2019-03-19T05:38:58.907Z,-0.44
2019-03-19T05:39:58.929Z,-0.37
2019-03-19T05:40:58.963Z,-0.34
2019-03-19T05:41:58.993Z,-0.34
2019-03-19T05:42:59.030Z,-0.37
2019-03-19T05:43:59.065Z,-0.34
2019-03-19T05:44:59.097Z,-0.42
2019-03-19T05:45:59.147Z,-0.31
2019-03-19T05:46:59.167Z,-0.36
2019-03-19T05:47:59.202Z,-0.36
2019-03-19T05:48:59.237Z,-0.29
2019-03-19T05:49:59.269Z,-0.33
2019-03-19T05:50:59.304Z,-0.25
2019-03-19T05:51:59.339Z,-0.25
2019-03-19T05:52:59.376Z,-0.28
2019-03-19T05:53:59.410Z,-0.34
2019-03-19T05:54:59.448Z,-0.31
2019-03-19T05:55:59.478Z,-0.34
2019-03-19T05:56:59.515Z,-0.33
2019-03-19T05:57:59.545Z,-0.36
2019-03-19T05:58:59.581Z,-0.29
2019-03-19T05:59:59.615Z,-0.25
2019-03-19T06:00:59.655Z,-0.33
2019-03-19T06:01:59.686Z,-0.26
2019-03-19T06:02:59.718Z,-0.28
2019-03-19T06:03:59.760Z,-0.26
2019-03-19T06:04:59.791Z,-0.29
2019-03-19T06:05:59.824Z,-0.34
2019-03-19T06:06:59.864Z,-0.31
2019-03-19T06:07:59.893Z,-0.28
2019-03-19T06:08:59.975Z,-0.22
2019-03-19T06:09:59.960Z,-0.28
2019-03-19T06:10:59.996Z,-0.19
2019-03-19T06:12:00.030Z,-0.16
2019-03-19T06:13:00.067Z,-0.23
2019-03-19T06:14:00.098Z,-0.18
2019-03-19T06:15:00.316Z,-0.16
2019-03-19T06:16:00.168Z,-0.18
2019-03-19T06:17:00.209Z,-0.11
2019-03-19T06:18:00.240Z,-0.15
2019-03-19T06:19:00.271Z,-0.05
2019-03-19T06:20:00.308Z,-0.04
2019-03-19T06:21:00.349Z,0.03
2019-03-19T06:22:00.376Z,0.13
2019-03-19T06:23:00.414Z,0.07
2019-03-19T06:24:00.446Z,0.28
2019-03-19T06:25:00.481Z,0.35
2019-03-19T06:26:00.516Z,0.31
2019-03-19T06:27:00.553Z,0.33
2019-03-19T06:28:01.022Z,0.28
2019-03-19T06:29:00.627Z,0.31
2019-03-19T06:30:00.651Z,0.39
2019-03-19T06:31:00.737Z,0.38
2019-03-19T06:32:00.724Z,0.42
2019-03-19T06:33:00.797Z,0.44
2019-03-19T06:34:00.791Z,0.42
2019-03-19T06:35:00.829Z,0.39
2019-03-19T06:36:00.861Z,0.36
2019-03-19T06:37:00.909Z,0.44
2019-03-19T06:38:00.930Z,0.50
2019-03-19T06:39:00.969Z,0.50
2019-03-19T06:40:01.000Z,0.49
2019-03-19T06:41:01.035Z,0.53
2019-03-19T06:42:01.069Z,0.51
2019-03-19T06:43:01.112Z,0.55
2019-03-19T06:44:01.241Z,0.47
2019-03-19T06:45:01.175Z,0.53
2019-03-19T06:46:01.214Z,0.55
2019-03-19T06:47:01.245Z,0.53
2019-03-19T06:48:01.279Z,0.58
2019-03-19T06:49:01.317Z,0.75
2019-03-19T06:50:01.351Z,0.60
2019-03-19T06:51:01.382Z,0.62
2019-03-19T06:52:01.426Z,0.69
2019-03-19T06:53:01.455Z,0.73
2019-03-19T06:54:01.498Z,0.76
2019-03-19T06:55:01.525Z,0.78
2019-03-19T06:56:01.558Z,0.84
2019-03-19T06:57:01.593Z,0.80
2019-03-19T06:58:10.573Z,0.86
2019-03-19T06:59:01.666Z,0.84
2019-03-19T07:00:01.700Z,0.88
2019-03-19T07:01:01.735Z,0.94
2019-03-19T07:02:01.777Z,0.98
2019-03-19T07:03:01.814Z,1.04
2019-03-19T07:04:01.842Z,1.04
2019-03-19T07:05:01.894Z,0.98
2019-03-19T07:06:01.907Z,1.11
2019-03-19T07:07:01.943Z,1.15
2019-03-19T07:08:01.979Z,1.08
2019-03-19T07:09:02.013Z,1.12
2019-03-19T07:10:02.050Z,1.14
2019-03-19T07:11:02.092Z,1.15
2019-03-19T07:12:02.120Z,1.16
2019-03-19T07:13:02.154Z,1.30
2019-03-19T07:14:02.189Z,1.27
2019-03-19T07:15:02.227Z,1.36
2019-03-19T07:16:02.260Z,1.42
2019-03-19T07:17:02.300Z,1.34
2019-03-19T07:18:02.330Z,1.41
2019-03-19T07:19:02.363Z,1.32
2019-03-19T07:20:02.455Z,1.36
2019-03-19T07:21:02.442Z,1.45
2019-03-19T07:22:02.469Z,1.42
2019-03-19T07:23:02.507Z,1.48
2019-03-19T07:24:02.546Z,1.51
2019-03-19T07:25:02.579Z,1.54
2019-03-19T07:26:02.610Z,1.45
2019-03-19T07:27:02.645Z,1.44
2019-03-19T07:28:02.680Z,1.55
2019-03-19T07:29:02.715Z,1.51
2019-03-19T07:30:02.750Z,1.50
2019-03-19T07:31:02.785Z,1.58
2019-03-19T07:32:02.825Z,1.62
2019-03-19T07:33:02.856Z,1.66
2019-03-19T07:34:02.899Z,1.77
2019-03-19T07:35:02.931Z,1.81
2019-03-19T07:36:02.961Z,1.81
2019-03-19T07:37:03.006Z,1.91
2019-03-19T07:38:03.030Z,1.80
2019-03-19T07:39:03.169Z,1.90
2019-03-19T07:40:03.111Z,1.88
2019-03-19T07:41:03.141Z,1.98
2019-03-19T07:42:03.173Z,1.91
2019-03-19T07:43:03.209Z,2.09
2019-03-19T07:44:03.247Z,2.03
2019-03-19T07:45:03.290Z,2.00
2019-03-19T07:46:03.319Z,1.99
2019-03-19T07:47:03.351Z,2.14
2019-03-19T07:48:03.399Z,2.09
2019-03-19T07:49:03.424Z,2.07
2019-03-19T07:50:03.466Z,2.14
2019-03-19T07:51:03.493Z,2.14
2019-03-19T07:52:03.538Z,2.18
2019-03-19T07:53:03.573Z,2.28
2019-03-19T07:54:03.599Z,2.24
2019-03-19T07:55:03.635Z,2.27
2019-03-19T07:56:03.685Z,2.30
2019-03-19T07:57:03.705Z,2.45
2019-03-19T07:58:03.740Z,2.41
2019-03-19T07:59:03.779Z,2.41
2019-03-19T08:00:03.814Z,2.54
2019-03-19T08:01:03.850Z,2.57
2019-03-19T08:02:03.884Z,2.53
2019-03-19T08:03:03.922Z,2.59
2019-03-19T08:04:05.017Z,2.67
2019-03-19T08:05:03.991Z,2.69
2019-03-19T08:06:04.040Z,2.67
2019-03-19T08:07:04.066Z,2.72
2019-03-19T08:08:04.098Z,2.82
2019-03-19T08:09:04.134Z,2.81
2019-03-19T08:10:04.244Z,2.89
2019-03-19T08:11:04.207Z,2.89
2019-03-19T08:12:04.242Z,2.92
2019-03-19T08:13:04.278Z,2.99
2019-03-19T08:14:04.313Z,3.03
2019-03-19T08:15:04.349Z,2.95
2019-03-19T08:16:04.383Z,2.97
2019-03-19T08:17:04.422Z,2.99
2019-03-19T08:18:04.465Z,3.03
2019-03-19T08:19:04.491Z,3.08
2019-03-19T08:20:04.535Z,3.05
2019-03-19T08:21:04.568Z,3.03
2019-03-19T08:22:04.699Z,3.03
2019-03-19T08:23:04.640Z,3.11
2019-03-19T08:24:04.673Z,3.17
2019-03-19T08:25:04.721Z,3.24
2019-03-19T08:26:04.746Z,3.20
2019-03-19T08:27:04.783Z,3.31
2019-03-19T08:28:04.815Z,3.32
2019-03-19T08:29:04.952Z,3.39
2019-03-19T08:30:04.885Z,3.36
2019-03-19T08:31:04.925Z,3.47
2019-03-19T08:32:04.959Z,3.52
2019-03-19T08:33:04.995Z,3.54
2019-03-19T08:34:05.032Z,3.70
2019-03-19T08:35:05.071Z,3.62
2019-03-19T08:36:09.310Z,3.70
2019-03-19T08:37:05.147Z,3.73
2019-03-19T08:38:05.177Z,3.75
2019-03-19T08:39:05.211Z,3.87
2019-03-19T08:40:05.256Z,3.79
2019-03-19T08:41:05.284Z,3.75
2019-03-19T08:42:05.319Z,3.87
2019-03-19T08:43:05.356Z,3.84
2019-03-19T08:44:05.402Z,3.93
2019-03-19T08:45:05.480Z,3.90
2019-03-19T08:46:05.467Z,3.97
2019-03-19T08:47:05.501Z,4.05
2019-03-19T08:48:05.539Z,4.02
2019-03-19T08:49:05.583Z,4.11
2019-03-19T08:50:05.610Z,4.20
2019-03-19T08:51:05.651Z,4.15
2019-03-19T08:52:05.681Z,4.33
2019-03-19T08:53:05.725Z,4.33
2019-03-19T08:54:05.755Z,4.33
2019-03-19T08:55:05.804Z,4.37
2019-03-19T08:56:05.831Z,4.50
2019-03-19T08:57:05.867Z,4.50
2019-03-19T08:58:05.901Z,4.58
2019-03-19T08:59:06.322Z,4.54
2019-03-19T09:00:05.975Z,4.54
2019-03-19T09:01:06.013Z,4.63
2019-03-19T09:02:06.048Z,4.66
2019-03-19T09:03:06.084Z,4.66
2019-03-19T09:04:06.122Z,4.69
2019-03-19T09:05:06.164Z,4.73
2019-03-19T09:06:06.219Z,4.80
2019-03-19T09:07:06.238Z,4.94
2019-03-19T09:08:06.267Z,5.03
2019-03-19T09:09:06.311Z,5.10
2019-03-19T09:10:06.356Z,5.15
2019-03-19T09:11:06.377Z,5.40
2019-03-19T09:12:06.415Z,5.43
2019-03-19T09:13:06.457Z,5.65
2019-03-19T09:14:06.492Z,5.75
2019-03-19T09:15:06.533Z,5.78
2019-03-19T09:16:06.573Z,5.90
2019-03-19T09:17:06.599Z,5.90
2019-03-19T09:18:06.635Z,6.08
2019-03-19T09:19:06.822Z,6.04
2019-03-19T09:20:06.710Z,6.09
2019-03-19T09:21:06.746Z,6.17
2019-03-19T09:22:06.781Z,6.31
2019-03-19T09:23:06.820Z,6.34
2019-03-19T09:24:06.859Z,6.55
2019-03-19T09:25:06.901Z,6.49
2019-03-19T09:26:06.933Z,6.56
2019-03-19T09:27:06.967Z,6.61
2019-03-19T09:28:07.005Z,6.69
2019-03-19T09:29:16.447Z,6.79
2019-03-19T09:30:07.079Z,6.87
2019-03-19T09:31:07.117Z,6.92
2019-03-19T09:32:07.162Z,7.03
2019-03-19T09:33:07.191Z,7.17
2019-03-19T09:34:07.227Z,7.21
2019-03-19T09:35:07.270Z,7.23
2019-03-19T09:36:07.303Z,7.42
2019-03-19T09:37:07.338Z,7.40
2019-03-19T09:38:07.377Z,7.48
2019-03-19T09:39:07.414Z,7.53
2019-03-19T09:40:07.450Z,7.58
2019-03-19T09:41:07.500Z,7.58
2019-03-19T09:42:07.525Z,7.60
2019-03-19T09:43:07.563Z,7.68
2019-03-19T09:44:07.600Z,7.74
2019-03-19T09:45:07.637Z,7.79
2019-03-19T09:46:07.675Z,7.85
2019-03-19T09:47:07.711Z,7.87
2019-03-19T09:48:07.758Z,7.97
2019-03-19T09:49:07.789Z,8.00
2019-03-19T09:50:07.884Z,7.93
2019-03-19T09:51:07.863Z,8.04
2019-03-19T09:52:07.906Z,8.01
2019-03-19T09:53:07.941Z,8.07
2019-03-19T09:54:07.976Z,8.01
2019-03-19T09:55:08.015Z,8.05
2019-03-19T09:56:08.053Z,8.15
2019-03-19T09:57:08.098Z,8.15
2019-03-19T09:58:08.130Z,8.20
2019-03-19T09:59:08.166Z,8.22
2019-03-19T10:00:08.205Z,8.23
2019-03-19T10:01:08.242Z,8.25
2019-03-19T10:02:08.281Z,8.36
2019-03-19T10:03:08.319Z,8.40
2019-03-19T10:04:08.358Z,8.50
2019-03-19T10:05:08.394Z,8.65
2019-03-19T10:06:14.016Z,8.71
2019-03-19T10:07:08.478Z,8.80
2019-03-19T10:08:08.508Z,8.86
2019-03-19T10:09:08.551Z,8.99
2019-03-19T10:10:08.585Z,9.02
2019-03-19T10:11:08.624Z,8.96
2019-03-19T10:12:08.663Z,8.87
2019-03-19T10:13:08.707Z,8.91
2019-03-19T10:14:08.742Z,8.96
2019-03-19T10:15:08.780Z,9.08
2019-03-19T10:16:08.866Z,9.10
2019-03-19T10:17:08.854Z,8.98
2019-03-19T10:18:08.899Z,9.02
2019-03-19T10:19:08.931Z,8.92
2019-03-19T10:20:08.969Z,8.96
2019-03-19T10:21:09.009Z,8.87
2019-03-19T10:22:09.046Z,8.83
2019-03-19T10:23:09.086Z,8.80
2019-03-19T10:24:09.125Z,8.58
2019-03-19T10:25:09.172Z,8.41
2019-03-19T10:26:09.201Z,8.34
2019-03-19T10:27:09.242Z,8.29
2019-03-19T10:28:09.281Z,8.23
2019-03-19T10:29:09.322Z,8.29
2019-03-19T10:30:09.455Z,8.43
2019-03-19T10:31:09.398Z,8.56
2019-03-19T10:32:09.435Z,8.62
2019-03-19T10:33:09.472Z,8.84
2019-03-19T10:34:09.510Z,8.94
2019-03-19T10:35:09.552Z,8.95
2019-03-19T10:36:09.595Z,9.17
2019-03-19T10:37:09.786Z,9.17
2019-03-19T10:38:09.666Z,9.15
2019-03-19T10:39:09.704Z,9.29
2019-03-19T10:40:09.758Z,9.24
2019-03-19T10:41:09.805Z,9.20
2019-03-19T10:42:09.818Z,9.23
2019-03-19T10:43:09.860Z,9.24
2019-03-19T10:44:09.906Z,9.21
2019-03-19T10:45:09.941Z,9.13
2019-03-19T10:46:09.975Z,9.15
2019-03-19T10:47:10.013Z,9.15
2019-03-19T10:48:10.060Z,9.17
2019-03-19T10:49:10.092Z,9.23
2019-03-19T10:50:10.131Z,9.35
2019-03-19T10:51:10.186Z,9.35
2019-03-19T10:52:10.208Z,9.42
2019-03-19T10:53:10.276Z,9.35
2019-03-19T10:54:10.285Z,9.43
2019-03-19T10:55:10.332Z,9.56
2019-03-19T10:56:10.369Z,9.54
2019-03-19T10:57:10.404Z,9.69
2019-03-19T10:58:11.457Z,9.66
2019-03-19T10:59:10.497Z,9.65
2019-03-19T11:00:10.521Z,9.64
2019-03-19T11:01:10.564Z,9.53
2019-03-19T11:02:10.599Z,9.57
2019-03-19T11:03:10.656Z,9.46
2019-03-19T11:04:10.678Z,9.39
2019-03-19T11:05:10.726Z,9.31
2019-03-19T11:06:10.771Z,9.26
2019-03-19T11:07:10.797Z,9.20
2019-03-19T11:08:10.835Z,9.17
2019-03-19T11:09:10.874Z,9.20
2019-03-19T11:10:10.923Z,9.14
2019-03-19T11:11:10.952Z,9.17
2019-03-19T11:12:10.995Z,9.08
2019-03-19T11:13:11.035Z,9.08
2019-03-19T11:14:11.071Z,9.08
2019-03-19T11:15:11.108Z,9.08
2019-03-19T11:16:11.146Z,9.08
2019-03-19T11:17:11.254Z,9.17
2019-03-19T11:18:11.227Z,9.23
2019-03-19T11:19:11.264Z,9.29
2019-03-19T11:20:11.307Z,9.24
2019-03-19T11:21:11.342Z,9.39
2019-03-19T11:22:11.384Z,9.36
2019-03-19T11:23:11.421Z,9.43
2019-03-19T11:24:11.460Z,9.64
2019-03-19T11:25:11.501Z,9.72
2019-03-19T11:26:11.543Z,9.86
2019-03-19T11:27:11.586Z,9.94
2019-03-19T11:28:13.797Z,10.09
2019-03-19T11:29:11.660Z,10.18
2019-03-19T11:30:11.694Z,10.32
2019-03-19T11:31:11.735Z,10.47
2019-03-19T11:32:11.775Z,10.53
2019-03-19T11:33:11.814Z,10.63
2019-03-19T11:34:11.853Z,10.76
2019-03-19T11:35:11.892Z,10.91
2019-03-19T11:36:11.940Z,10.97
2019-03-19T11:37:11.971Z,11.00
2019-03-19T11:38:12.010Z,10.96
2019-03-19T11:39:12.052Z,11.14
2019-03-19T11:40:12.092Z,11.28
2019-03-19T11:41:12.132Z,11.46
2019-03-19T11:42:12.180Z,11.57
2019-03-19T11:43:12.209Z,11.69
2019-03-19T11:44:12.259Z,11.85
2019-03-19T11:45:12.291Z,11.88
2019-03-19T11:46:12.330Z,12.07
2019-03-19T11:47:12.379Z,11.91
2019-03-19T11:48:12.413Z,11.90
2019-03-19T11:49:12.463Z,11.75
2019-03-19T11:50:12.495Z,11.47
2019-03-19T11:51:12.534Z,11.09
2019-03-19T11:52:12.574Z,10.94
2019-03-19T11:53:12.616Z,10.74
2019-03-19T11:54:12.655Z,10.71
2019-03-19T11:55:12.709Z,10.73
2019-03-19T11:56:12.738Z,10.71
2019-03-19T11:57:12.777Z,10.64
2019-03-19T11:58:12.820Z,10.64
2019-03-19T11:59:12.860Z,10.56
2019-03-19T12:00:12.899Z,10.42
2019-03-19T12:01:12.939Z,10.60
2019-03-19T12:02:12.993Z,10.51
2019-03-19T12:03:16.378Z,10.63
2019-03-19T12:04:13.061Z,10.68
2019-03-19T12:05:13.103Z,10.52
2019-03-19T12:06:13.142Z,10.27
2019-03-19T12:07:13.183Z,10.27
2019-03-19T12:08:13.225Z,10.18
2019-03-19T12:09:13.265Z,10.07
2019-03-19T12:10:13.347Z,10.04
2019-03-19T12:11:13.404Z,9.91
2019-03-19T12:12:13.386Z,9.96
2019-03-19T12:13:13.428Z,9.91
2019-03-19T12:14:13.465Z,9.94
2019-03-19T12:15:13.506Z,9.99
2019-03-19T12:16:13.548Z,9.97
2019-03-19T12:17:13.588Z,10.12
2019-03-19T12:18:13.628Z,10.09
2019-03-19T12:19:13.667Z,10.33
2019-03-19T12:20:13.710Z,10.44
2019-03-19T12:21:13.750Z,10.60
2019-03-19T12:22:13.788Z,10.73
2019-03-19T12:23:13.827Z,10.91
2019-03-19T12:24:13.869Z,10.96
2019-03-19T12:25:13.909Z,11.09
2019-03-19T12:26:13.951Z,11.17
2019-03-19T12:27:13.995Z,11.27
2019-03-19T12:28:14.031Z,11.33
2019-03-19T12:29:14.071Z,11.27
2019-03-19T12:30:22.238Z,11.35
2019-03-19T12:31:14.152Z,11.43
2019-03-19T12:32:14.200Z,11.55
2019-03-19T12:33:14.244Z,11.64
2019-03-19T12:34:14.276Z,11.78
2019-03-19T12:35:14.313Z,11.91
2019-03-19T12:36:14.356Z,11.88
2019-03-19T12:37:14.401Z,11.96
2019-03-19T12:38:14.437Z,11.94
2019-03-19T12:39:14.476Z,11.83
2019-03-19T12:40:14.527Z,11.82
2019-03-19T12:41:14.586Z,11.73
2019-03-19T12:42:14.598Z,11.64
2019-03-19T12:43:14.640Z,11.67
2019-03-19T12:44:14.682Z,11.67
2019-03-19T12:45:14.732Z,11.65
2019-03-19T12:46:14.774Z,11.73
2019-03-19T12:47:14.805Z,11.79
2019-03-19T12:48:14.906Z,11.86
2019-03-19T12:49:14.889Z,11.86
2019-03-19T12:50:14.928Z,11.80
2019-03-19T12:51:14.968Z,11.72
2019-03-19T12:52:15.020Z,11.67
2019-03-19T12:53:15.051Z,11.60
2019-03-19T12:54:15.092Z,11.44
2019-03-19T12:55:15.213Z,11.42
2019-03-19T12:56:15.173Z,11.32
2019-03-19T12:57:15.223Z,11.29
2019-03-19T12:58:15.264Z,11.15
2019-03-19T12:59:20.201Z,11.02
2019-03-19T13:00:15.339Z,10.99
2019-03-19T13:01:15.530Z,10.99
2019-03-19T13:02:15.420Z,10.89
2019-03-19T13:03:15.463Z,10.85
2019-03-19T13:04:15.581Z,10.76
2019-03-19T13:05:15.550Z,10.84
2019-03-19T13:06:15.586Z,10.76
2019-03-19T13:07:15.627Z,10.76
2019-03-19T13:08:15.668Z,10.76
2019-03-19T13:09:15.721Z,10.74
2019-03-19T13:10:15.759Z,10.73